Time;durP1;ratioP1;P1;durP2;ratioP2;P2;SDS_P1;SDS_P2;PMS_P1;PMS_P2;Temp;Humidity;BMP_temperature;BMP_pressure;BME280_temperature;BME280_humidity;BME280_pressure;Samples;Min_cycle;Max_cycle;Signal;HPM_P1;HPM_P2
2022/09/19 00:01:18;;;;;;;4.90;3.45;;;9.80;99.90;;;;;;2610988;54;20446;-72
2022/09/19 00:04:19;;;;;;;14.77;3.90;;;9.70;99.90;;;;;;2609075;54;20150;-72
2022/09/19 00:10:22;;;;;;;6.67;3.93;;;9.80;99.90;;;;;;2608870;54;20999;-71
2022/09/19 00:16:17;;;;;;;9.23;3.40;;;9.80;99.90;;;;;;2614925;54;20374;-71
2022/09/19 00:22:05;;;;;;;7.20;3.37;;;9.80;99.90;;;;;;2613500;54;20399;-72
2022/09/19 00:27:52;;;;;;;15.83;4.97;;;9.80;99.90;;;;;;2612171;54;20394;-70
2022/09/19 00:33:40;;;;;;;14.48;3.53;;;9.90;99.90;;;;;;2614115;54;20134;-70
2022/09/19 00:39:28;;;;;;;10.63;3.70;;;9.80;99.90;;;;;;2613451;54;20236;-71
2022/09/19 00:45:16;;;;;;;10.10;3.60;;;9.90;99.90;;;;;;2613148;54;20150;-71
2022/09/19 00:51:04;;;;;;;13.87;3.70;;;9.90;99.90;;;;;;2614901;54;20414;-70
2022/09/19 00:56:54;;;;;;;7.50;3.63;;;9.90;99.90;;;;;;2614312;54;20430;-71
2022/09/19 01:02:42;;;;;;;6.07;3.37;;;9.90;99.90;;;;;;2613685;54;20389;-72
2022/09/19 01:05:49;;;;;;;10.77;3.83;;;9.90;99.90;;;;;;2613907;54;20429;-70
2022/09/19 01:08:41;;;;;;;15.73;4.07;;;9.90;99.90;;;;;;2613053;54;20428;-71
2022/09/19 01:34:40;;;;;;;16.07;4.07;;;10.00;99.90;;;;;;2615485;39;20554;-72
2022/09/19 01:40:29;;;;;;;20.10;4.90;;;10.00;99.90;;;;;;2615415;54;20134;-72
2022/09/19 02:20:31;;;;;;;12.67;4.60;;;9.40;99.90;;;;;;2612901;54;20494;-71
2022/09/19 02:26:21;;;;;;;12.00;5.00;;;9.30;99.90;;;;;;2613512;54;20403;-70
2022/09/19 02:32:09;;;;;;;16.07;3.80;;;9.40;99.90;;;;;;2613564;54;20990;-70
2022/09/19 02:38:03;;;;;;;16.90;4.57;;;9.30;99.90;;;;;;2612560;54;20435;-69
2022/09/19 02:57:01;;;;;;;9.67;3.70;;;9.20;99.90;;;;;;2614563;54;20409;-69
2022/09/19 03:09:11;;;;;;;16.30;4.67;;;9.10;99.90;;;;;;2612360;54;20405;-68
2022/09/19 03:14:59;;;;;;;22.67;4.90;;;9.30;99.90;;;;;;2615270;54;20406;-69
2022/09/19 03:27:31;;;;;;;8.53;3.50;;;9.50;99.90;;;;;;2613444;54;20418;-69
2022/09/19 03:33:18;;;;;;;18.23;5.17;;;9.60;99.90;;;;;;2613332;54;20287;-69
2022/09/19 03:39:06;;;;;;;18.83;4.90;;;9.60;99.90;;;;;;2613166;54;20130;-70
2022/09/19 03:44:54;;;;;;;10.17;4.53;;;9.60;99.90;;;;;;2613013;54;20430;-69
2022/09/19 03:50:41;;;;;;;12.10;5.40;;;9.70;99.90;;;;;;2614334;39;20959;-69
2022/09/19 03:56:28;;;;;;;19.17;4.47;;;9.60;99.90;;;;;;2613297;54;20150;-68
2022/09/19 04:02:15;;;;;;;12.43;4.60;;;9.50;99.90;;;;;;2614204;39;20538;-68
2022/09/19 04:08:03;;;;;;;17.87;4.17;;;9.40;99.90;;;;;;2613905;39;20236;-69
2022/09/19 04:10:49;;;;;;;8.77;4.03;;;9.40;99.90;;;;;;2613477;47;20412;-70
2022/09/19 04:13:14;;;;;;;14.53;4.33;;;9.40;99.90;;;;;;2613884;54;20194;-69
2022/09/19 04:19:08;;;;;;;12.60;5.30;;;9.30;99.90;;;;;;2613829;54;20161;-69
2022/09/19 04:24:55;;;;;;;10.63;4.10;;;9.40;99.90;;;;;;2613445;54;20495;-72
2022/09/19 04:30:44;;;;;;;9.07;3.83;;;9.50;99.90;;;;;;2614040;39;20841;-69
2022/09/19 04:36:33;;;;;;;10.67;3.93;;;9.60;99.90;;;;;;2612996;54;20375;-69
2022/09/19 04:42:21;;;;;;;23.13;5.10;;;9.70;99.90;;;;;;2614349;54;20130;-69
2022/09/19 04:48:09;;;;;;;13.90;4.55;;;9.80;99.90;;;;;;2614140;54;20756;-69
2022/09/19 04:53:57;;;;;;;10.50;4.43;;;9.80;99.90;;;;;;2614873;39;20610;-69
2022/09/19 04:59:45;;;;;;;9.43;4.10;;;9.80;99.90;;;;;;2614759;54;20406;-69
2022/09/19 05:05:36;;;;;;;16.07;5.10;;;9.80;99.90;;;;;;2613623;54;20229;-69
2022/09/19 05:15:26;;;;;;;8.50;5.10;;;9.90;99.90;;;;;;2612853;39;20913;-72
2022/09/19 05:21:15;;;;;;;10.83;4.43;;;9.90;99.90;;;;;;2613233;54;20482;-73
2022/09/19 05:27:03;;;;;;;11.53;4.27;;;9.90;99.90;;;;;;2614379;39;20752;-70
2022/09/19 05:32:51;;;;;;;14.07;4.10;;;9.90;99.90;;;;;;2613289;54;20371;-69
2022/09/19 05:38:40;;;;;;;15.57;4.10;;;9.90;99.90;;;;;;2611725;54;20417;-69
2022/09/19 05:44:28;;;;;;;13.10;5.03;;;9.80;99.90;;;;;;2614560;54;20362;-69
2022/09/19 05:50:15;;;;;;;9.83;4.67;;;9.80;99.90;;;;;;2612499;54;20240;-69
2022/09/19 05:56:04;;;;;;;15.17;4.83;;;9.80;99.90;;;;;;2615566;54;20154;-70
2022/09/19 06:01:52;;;;;;;17.87;5.20;;;9.90;99.90;;;;;;2607942;54;20914;-70
2022/09/19 06:07:40;;;;;;;20.37;4.93;;;10.10;99.90;;;;;;2612202;54;20130;-71
2022/09/19 06:10:53;;;;;;;12.10;4.03;;;10.10;99.90;;;;;;2613104;39;20813;-70
2022/09/19 06:13:21;;;;;;;7.80;4.37;;;10.10;99.90;;;;;;2613517;46;20442;-70
2022/09/19 06:19:09;;;;;;;8.97;4.33;;;10.30;99.90;;;;;;2615351;46;20374;-71
2022/09/19 06:24:56;;;;;;;12.50;5.75;;;11.40;99.90;;;;;;2614474;54;20423;-70
2022/09/19 06:30:44;;;;;;;11.13;4.03;;;11.90;99.90;;;;;;2613706;54;20133;-72
2022/09/19 06:36:32;;;;;;;14.63;4.80;;;12.10;99.90;;;;;;2611973;54;20123;-71
2022/09/19 06:42:20;;;;;;;14.77;4.63;;;12.10;99.90;;;;;;2613871;54;20214;-72
2022/09/19 06:48:09;;;;;;;14.23;6.33;;;12.50;99.90;;;;;;2615048;54;20249;-70
2022/09/19 06:53:57;;;;;;;13.20;5.23;;;12.00;99.90;;;;;;2612911;54;20491;-72
2022/09/19 06:59:45;;;;;;;13.10;6.13;;;11.80;99.90;;;;;;2613740;39;20524;-70
2022/09/19 07:05:35;;;;;;;17.63;5.40;;;12.50;99.90;;;;;;2613086;54;20147;-70
2022/09/19 07:15:25;;;;;;;12.75;4.10;;;12.10;99.90;;;;;;2614215;39;20750;-71
2022/09/19 07:21:13;;;;;;;9.97;4.93;;;12.90;99.90;;;;;;2614531;54;20439;-70
2022/09/19 07:27:01;;;;;;;16.57;4.67;;;12.60;99.90;;;;;;2614352;54;20139;-69
2022/09/19 07:32:48;;;;;;;13.68;3.97;;;12.50;99.90;;;;;;2614194;54;20762;-71
2022/09/19 07:38:36;;;;;;;10.27;3.53;;;12.70;99.90;;;;;;2613023;39;20724;-70
2022/09/19 07:44:24;;;;;;;13.23;3.60;;;13.00;99.90;;;;;;2615300;54;20302;-71
2022/09/19 07:50:16;;;;;;;6.23;2.73;;;12.80;99.90;;;;;;2615435;54;20415;-69
2022/09/19 07:56:05;;;;;;;12.50;3.40;;;14.50;99.90;;;;;;2614828;54;20150;-75
2022/09/19 08:01:53;;;;;;;8.30;4.70;;;14.20;99.90;;;;;;2613578;54;20443;-70
2022/09/19 08:07:41;;;;;;;11.85;2.85;;;14.70;99.90;;;;;;2613640;54;20948;-71
2022/09/19 08:10:54;;;;;;;16.37;4.33;;;15.40;99.90;;;;;;2610067;54;20170;-70
2022/09/19 08:13:21;;;;;;;19.47;3.20;;;15.70;99.90;;;;;;2610891;54;20183;-71
2022/09/19 08:19:09;;;;;;;7.73;2.43;;;16.10;99.90;;;;;;2613605;54;20134;-72
2022/09/19 08:24:57;;;;;;;14.57;3.70;;;17.20;99.90;;;;;;2613620;46;20367;-71
2022/09/19 08:30:45;;;;;;;6.85;2.78;;;16.20;99.90;;;;;;2612554;54;20134;-72
2022/09/19 08:36:33;;;;;;;7.80;2.87;;;17.10;99.90;;;;;;2614739;54;20414;-69
2022/09/19 08:48:57;;;;;;;9.63;2.57;;;16.40;99.90;;;;;;2614741;54;20395;-70
2022/09/19 08:54:49;;;;;;;5.93;2.63;;;17.10;99.90;;;;;;2613121;54;20431;-70
2022/09/19 09:00:41;;;;;;;4.20;2.30;;;17.50;99.90;;;;;;2614818;54;20420;-70
2022/09/19 09:22:55;;;;;;;9.33;2.73;;;16.40;99.90;;;;;;2612571;39;20449;-72
2022/09/19 09:35:02;;;;;;;8.87;3.80;;;17.20;99.60;;;;;;2614723;54;20413;-70
2022/09/19 09:47:11;;;;;;;12.80;3.43;;;16.30;99.90;;;;;;2610703;54;20515;-72
2022/09/19 09:50:14;;;;;;;8.43;2.20;;;16.80;99.90;;;;;;2611796;46;20474;-72
2022/09/19 09:52:50;;;;;;;4.63;2.03;;;17.50;99.20;;;;;;2613102;54;21036;-70
2022/09/19 09:58:59;;;;;;;7.73;2.83;;;17.10;99.90;;;;;;2612026;54;20246;-72
2022/09/19 10:04:53;;;;;;;9.77;3.00;;;16.50;99.90;;;;;;2612195;54;20419;-71
2022/09/19 10:10:41;;;;;;;7.03;2.20;;;16.20;99.90;;;;;;2615090;54;20431;-71
2022/09/19 10:16:32;;;;;;;6.43;2.83;;;16.00;99.90;;;;;;2614093;39;20838;-71
2022/09/19 10:22:19;;;;;;;6.17;2.00;;;17.50;91.50;;;;;;2611923;54;20416;-70
2022/09/19 10:39:03;;;;;;;4.67;2.30;;;18.10;77.50;;;;;;2614440;54;20979;-72
2022/09/19 10:44:52;;;;;;;9.63;2.93;;;18.00;66.80;;;;;;2613197;54;20403;-71
2022/09/19 10:50:45;;;;;;;4.13;2.40;;;18.20;72.50;;;;;;2615097;54;20440;-71
2022/09/19 10:56:34;;;;;;;7.07;2.50;;;17.30;78.20;;;;;;2615021;54;20920;-72
2022/09/19 11:02:25;;;;;;;5.30;2.37;;;17.20;68.20;;;;;;2615662;54;20404;-70
2022/09/19 11:08:25;;;;;;;5.33;2.60;;;19.00;57.50;;;;;;2613986;31;20848;-71
2022/09/19 11:14:16;;;;;;;3.73;2.70;;;19.90;43.00;;;;;;2614748;54;20200;-71
2022/09/19 11:47:28;;;;;;;8.80;2.90;;;18.60;35.80;;;;;;2609609;39;20485;-71
2022/09/19 11:59:52;;;;;;;5.70;2.33;;;16.60;93.20;;;;;;2612092;54;20399;-72
2022/09/19 12:12:11;;;;;;;2.60;1.60;;;17.50;93.70;;;;;;2612145;54;20424;-71
2022/09/19 12:18:06;;;;;;;2.77;1.50;;;17.10;49.60;;;;;;2613803;54;20896;-73
2022/09/19 12:30:05;;;;;;;2.43;1.70;;;17.80;40.20;;;;;;2614697;54;20394;-74
2022/09/19 12:48:54;;;;;;;2.07;1.80;;;17.90;41.00;;;;;;2613855;54;20439;-70
2022/09/19 12:54:51;;;;;;;5.37;2.40;;;18.20;40.00;;;;;;2613784;54;20491;-72
2022/09/19 13:00:42;;;;;;;3.87;1.90;;;18.30;42.20;;;;;;2607029;54;20395;-72
2022/09/19 13:06:41;;;;;;;2.37;1.53;;;18.30;43.80;;;;;;2613662;54;20483;-72
2022/09/19 13:15:54;;;;;;;4.13;2.10;;;17.70;70.70;;;;;;2613798;54;20130;-72
2022/09/19 13:38:25;;;;;;;5.57;2.27;;;17.00;91.00;;;;;;2615124;54;20203;-70
2022/09/19 13:57:29;;;;;;;1.90;1.70;;;16.70;49.60;;;;;;2614467;54;20383;-69
2022/09/19 14:09:42;;;;;;;2.60;1.83;;;17.40;41.80;;;;;;2614045;54;20383;-71
2022/09/19 14:19:00;;;;;;;4.00;2.67;;;18.70;37.00;;;;;;2614573;54;20351;-73
2022/09/19 14:21:34;;;;;;;5.30;3.00;;;18.90;39.20;;;;;;2614526;39;20969;-70
2022/09/19 14:59:50;;;;;;;10.00;2.57;;;16.70;63.00;;;;;;2613621;54;20420;-70
2022/09/19 15:05:42;;;;;;;5.70;2.00;;;15.90;95.70;;;;;;2613167;54;20398;-71
2022/09/19 15:11:29;;;;;;;5.10;2.50;;;14.60;99.90;;;;;;2613810;54;20383;-70
2022/09/19 15:17:20;;;;;;;4.77;3.60;;;14.30;99.90;;;;;;2614056;54;20698;-71
2022/09/19 15:23:09;;;;;;;5.77;2.47;;;14.30;99.90;;;;;;2613316;54;20531;-73
2022/09/19 15:29:00;;;;;;;3.27;2.43;;;14.10;99.90;;;;;;2614479;39;20633;-70
2022/09/19 15:34:49;;;;;;;2.70;2.40;;;14.10;99.90;;;;;;2614845;54;20418;-71
2022/09/19 15:40:37;;;;;;;5.03;2.67;;;13.80;99.90;;;;;;2614610;54;20412;-73
2022/09/19 15:46:31;;;;;;;2.70;2.05;;;14.20;99.90;;;;;;2614105;54;20857;-71
2022/09/19 15:58:57;;;;;;;3.20;2.53;;;14.00;99.90;;;;;;2615132;39;20760;-72
2022/09/19 16:04:45;;;;;;;13.05;8.82;;;14.00;99.90;;;;;;2615090;54;20394;-70
2022/09/19 16:10:37;;;;;;;2.97;2.67;;;14.10;99.90;;;;;;2615562;54;20130;-71
2022/09/19 16:16:35;;;;;;;3.58;1.73;;;14.00;99.90;;;;;;2614523;54;20423;-72
2022/09/19 16:25:53;;;;;;;3.00;1.70;;;14.10;99.90;;;;;;2614643;54;20181;-70
2022/09/19 16:31:44;;;;;;;2.80;1.80;;;14.30;99.90;;;;;;2615376;54;20402;-71
2022/09/19 16:37:37;;;;;;;4.40;2.17;;;14.70;99.90;;;;;;2615825;46;20402;-71
2022/09/19 16:43:42;;;;;;;3.50;2.20;;;16.20;99.90;;;;;;2615007;54;20422;-71
2022/09/19 16:49:29;;;;;;;3.83;2.10;;;15.10;99.90;;;;;;2615650;54;20450;-71
2022/09/19 17:01:55;;;;;;;6.63;2.30;;;15.00;99.90;;;;;;2613933;54;20411;-71
2022/09/19 17:07:42;;;;;;;2.75;2.00;;;14.80;99.90;;;;;;2613184;54;20493;-71
2022/09/19 17:13:29;;;;;;;3.73;1.47;;;13.50;99.90;;;;;;2614447;54;20288;-73
2022/09/19 17:19:16;;;;;;;9.17;4.23;;;12.20;99.90;;;;;;2614025;54;20448;-71
2022/09/19 17:28:35;;;;;;;5.40;2.23;;;12.20;99.90;;;;;;2614247;54;20454;-70
2022/09/19 17:34:22;;;;;;;9.80;2.60;;;12.20;99.90;;;;;;2614223;46;20414;-70
2022/09/19 17:40:11;;;;;;;5.40;2.50;;;12.30;99.90;;;;;;2615464;54;20130;-71
2022/09/19 17:46:02;;;;;;;4.87;2.40;;;12.30;99.90;;;;;;2616318;39;20881;-69
2022/09/19 17:51:50;;;;;;;7.00;3.70;;;12.10;99.90;;;;;;2614319;54;20374;-69
2022/09/19 17:57:38;;;;;;;10.00;6.20;;;12.20;99.90;;;;;;2614986;54;20384;-70
2022/09/19 18:03:26;;;;;;;7.17;4.80;;;12.10;99.90;;;;;;2614825;54;20145;-70
2022/09/19 18:09:14;;;;;;;11.47;5.77;;;12.20;99.90;;;;;;2614395;54;20227;-70
2022/09/19 18:15:02;;;;;;;11.57;5.78;;;12.30;99.90;;;;;;2614482;54;20382;-72
2022/09/19 18:20:57;;;;;;;6.93;3.57;;;12.40;99.90;;;;;;2614746;54;20640;-70
2022/09/19 18:24:00;;;;;;;7.00;3.20;;;12.40;99.90;;;;;;2615206;39;20737;-70
2022/09/19 18:26:26;;;;;;;7.03;3.20;;;12.30;99.90;;;;;;2614382;54;20418;-72
2022/09/19 18:32:14;;;;;;;8.03;3.40;;;12.40;99.90;;;;;;2613946;54;20158;-70
2022/09/19 18:38:02;;;;;;;13.80;5.97;;;12.40;99.90;;;;;;2615148;54;20390;-72
2022/09/19 18:43:50;;;;;;;8.95;5.40;;;12.40;99.90;;;;;;2614411;39;20597;-72
2022/09/19 18:49:38;;;;;;;8.07;3.90;;;12.20;99.90;;;;;;2615279;54;20972;-71
2022/09/19 18:55:25;;;;;;;13.23;4.32;;;12.30;99.90;;;;;;2614842;54;20149;-70
2022/09/19 19:01:16;;;;;;;10.80;5.60;;;12.20;99.90;;;;;;2612835;54;20162;-71
2022/09/19 19:07:04;;;;;;;6.47;5.33;;;12.10;99.90;;;;;;2614088;54;20246;-71
2022/09/19 19:12:53;;;;;;;10.55;5.10;;;12.00;99.90;;;;;;2614940;54;20122;-69
2022/09/19 19:18:42;;;;;;;9.63;6.60;;;11.70;99.90;;;;;;2613487;54;20428;-70
2022/09/19 19:28:32;;;;;;;6.40;5.80;;;11.50;99.90;;;;;;2614437;39;20580;-71
2022/09/19 19:34:19;;;;;;;11.47;7.47;;;11.50;99.90;;;;;;2614095;54;20380;-70
2022/09/19 19:40:08;;;;;;;10.47;5.60;;;11.50;99.90;;;;;;2613948;54;20379;-71
2022/09/19 19:46:01;;;;;;;10.90;7.20;;;11.40;99.90;;;;;;2614540;54;20410;-71
2022/09/19 19:51:49;;;;;;;15.20;6.17;;;11.30;99.90;;;;;;2615174;54;20439;-71
2022/09/19 19:57:37;;;;;;;8.90;6.10;;;11.00;99.90;;;;;;2614980;54;20271;-70
2022/09/19 20:03:26;;;;;;;11.75;6.55;;;11.10;99.90;;;;;;2614883;54;20147;-72
2022/09/19 20:09:15;;;;;;;9.30;6.63;;;11.00;99.90;;;;;;2614480;54;20396;-70
2022/09/19 20:15:03;;;;;;;10.43;5.97;;;10.90;99.90;;;;;;2614818;54;20415;-70
2022/09/19 20:20:50;;;;;;;14.70;5.70;;;10.60;99.90;;;;;;2615162;54;20522;-72
2022/09/19 20:26:39;;;;;;;9.27;5.80;;;10.60;99.90;;;;;;2614126;39;20791;-70
2022/09/19 20:32:27;;;;;;;9.30;5.30;;;10.70;99.90;;;;;;2614494;54;20385;-70
2022/09/19 20:38:14;;;;;;;9.60;5.53;;;10.40;99.90;;;;;;2614257;54;20250;-71
2022/09/19 20:44:06;;;;;;;8.87;6.17;;;10.30;99.90;;;;;;2613632;54;20126;-70
2022/09/19 20:49:53;;;;;;;9.33;5.17;;;10.10;99.90;;;;;;2613872;39;20741;-70
2022/09/19 20:55:41;;;;;;;14.75;6.40;;;10.10;99.90;;;;;;2615360;54;20127;-71
2022/09/19 21:01:32;;;;;;;14.97;6.03;;;10.20;99.90;;;;;;2614452;46;20150;-71
2022/09/19 21:07:19;;;;;;;9.43;5.43;;;10.20;99.90;;;;;;2613965;54;20387;-70
2022/09/19 21:13:07;;;;;;;17.83;10.07;;;10.10;99.90;;;;;;2614381;54;20182;-70
2022/09/19 21:18:57;;;;;;;10.97;7.13;;;10.00;99.90;;;;;;2614622;54;20162;-70
2022/09/19 21:24:44;;;;;;;17.07;5.63;;;9.80;99.90;;;;;;2614219;54;20423;-71
2022/09/19 21:30:32;;;;;;;11.13;5.47;;;9.90;99.90;;;;;;2613296;54;20189;-70
2022/09/19 21:36:20;;;;;;;9.13;4.30;;;9.80;99.90;;;;;;2615091;54;20252;-70
2022/09/19 21:42:08;;;;;;;11.20;4.93;;;9.80;99.90;;;;;;2615064;54;20416;-68
2022/09/19 21:47:56;;;;;;;14.17;5.87;;;9.90;99.90;;;;;;2616019;54;20263;-69
2022/09/19 21:53:48;;;;;;;9.63;5.25;;;9.70;99.90;;;;;;2615569;54;20134;-71
2022/09/19 21:59:36;;;;;;;9.30;5.00;;;9.60;99.90;;;;;;2615760;54;21023;-70
2022/09/19 22:05:23;;;;;;;14.43;4.93;;;9.70;99.90;;;;;;2614791;54;20130;-71
2022/09/19 22:11:13;;;;;;;11.80;5.00;;;9.60;99.90;;;;;;2614588;54;20747;-70
2022/09/19 22:17:01;;;;;;;8.40;4.67;;;9.60;99.90;;;;;;2615624;46;20142;-70
2022/09/19 22:22:49;;;;;;;16.50;5.80;;;9.70;99.90;;;;;;2615033;54;20497;-71
2022/09/19 22:28:37;;;;;;;10.33;4.80;;;9.70;99.90;;;;;;2615367;54;20179;-70
2022/09/19 22:34:24;;;;;;;18.33;5.73;;;9.70;99.90;;;;;;2614535;54;20387;-72
2022/09/19 22:40:12;;;;;;;13.43;5.10;;;9.60;99.90;;;;;;2615199;54;20724;-70
2022/09/19 22:46:04;;;;;;;14.70;5.27;;;9.50;99.90;;;;;;2614867;54;20216;-70
2022/09/19 22:51:52;;;;;;;13.07;6.13;;;9.50;99.90;;;;;;2614731;54;20400;-69
2022/09/19 22:57:39;;;;;;;16.53;5.93;;;9.40;99.90;;;;;;2615305;54;20390;-69
2022/09/19 23:03:28;;;;;;;20.70;6.03;;;9.50;99.90;;;;;;2615302;54;20154;-71
2022/09/19 23:09:18;;;;;;;17.87;6.13;;;9.40;99.90;;;;;;2615122;54;20431;-71
2022/09/19 23:15:08;;;;;;;14.40;6.47;;;9.60;99.90;;;;;;2614930;54;20411;-71
2022/09/19 23:20:59;;;;;;;12.33;6.00;;;9.60;99.90;;;;;;2615180;54;20395;-70
2022/09/19 23:26:49;;;;;;;14.57;6.88;;;9.50;99.90;;;;;;2615540;54;20507;-70
2022/09/19 23:32:36;;;;;;;20.40;8.80;;;9.30;99.90;;;;;;2614812;54;20370;-69
2022/09/19 23:38:24;;;;;;;11.10;6.23;;;9.40;99.90;;;;;;2613557;54;20149;-71
2022/09/19 23:44:12;;;;;;;15.80;7.53;;;9.60;99.90;;;;;;2614814;54;20388;-71
2022/09/19 23:49:59;;;;;;;14.50;8.10;;;9.50;99.90;;;;;;2615470;54;20149;-70
2022/09/19 23:55:48;;;;;;;8.57;7.68;;;9.30;99.90;;;;;;2614386;54;20624;-71
